Time;durP1;ratioP1;P1;durP2;ratioP2;P2;SDS_P1;SDS_P2;PMS_P1;PMS_P2;Temp;Humidity;BMP_temperature;BMP_pressure;BME280_temperature;BME280_humidity;BME280_pressure;Samples;Min_cycle;Max_cycle;Signal;HPM_P1;HPM_P2
2024/02/22 00:01:08;;;;;;;;;;;;;;;17.85;62.09;101498.91;7403037;19;1435;-77
2024/02/22 00:03:39;;;;;;;;;;;;;;;17.82;62.21;101503.59;7401590;19;1354;-77
2024/02/22 00:06:08;;;;;;;;;;;;;;;17.98;62.04;101503.38;7389359;19;1705;-76
2024/02/22 00:08:36;;;;;;;;;;;;;;;18.35;61.21;101495.34;7401179;19;1041;-78
2024/02/22 00:11:05;;;;;;;;;;;;;;;18.57;60.70;101490.09;7401078;19;1924;-76
2024/02/22 00:13:33;;;;;;;;;;;;;;;18.23;61.12;101484.56;7405210;19;1948;-77
2024/02/22 00:16:03;;;;;;;;;;;;;;;18.10;61.53;101470.38;7401684;19;1860;-77
2024/02/22 00:18:33;;;;;;;;;;;;;;;18.00;61.85;101474.69;7405580;19;1389;-77
2024/02/22 00:21:04;;;;;;;;;;;;;;;17.98;61.59;101468.59;7403113;19;1646;-76
2024/02/22 00:23:32;;;;;;;;;;;;;;;17.94;61.75;101475.97;7398046;19;1397;-77
2024/02/22 00:26:00;;;;;;;;;;;;;;;17.89;61.95;101480.81;7399422;19;1487;-76
2024/02/22 00:28:29;;;;;;;;;;;;;;;17.85;62.04;101477.50;7404103;19;1833;-77
2024/02/22 00:30:57;;;;;;;;;;;;;;;17.84;62.15;101478.47;7401892;19;1884;-77
2024/02/22 00:33:25;;;;;;;;;;;;;;;17.79;62.13;101475.25;7400639;19;1868;-77
2024/02/22 00:35:54;;;;;;;;;;;;;;;17.76;62.00;101472.78;7406477;19;1508;-77
2024/02/22 00:38:25;;;;;;;;;;;;;;;17.84;61.96;101464.22;7405767;19;1506;-77
2024/02/22 00:40:53;;;;;;;;;;;;;;;18.24;61.11;101456.84;7399356;19;1433;-77
2024/02/22 00:43:22;;;;;;;;;;;;;;;18.59;60.22;101450.66;7398549;19;2089;-77
2024/02/22 00:45:50;;;;;;;;;;;;;;;18.39;60.61;101452.16;7396979;19;1789;-78
2024/02/22 00:48:18;;;;;;;;;;;;;;;18.20;61.00;101455.31;7397498;19;1373;-77
2024/02/22 00:50:47;;;;;;;;;;;;;;;18.04;61.45;101444.91;7402012;19;1628;-77
2024/02/22 00:53:16;;;;;;;;;;;;;;;18.00;61.69;101453.28;7398364;19;1850;-77
2024/02/22 00:55:48;;;;;;;;;;;;;;;17.92;61.62;101447.63;7401279;19;1479;-77
2024/02/22 00:58:16;;;;;;;;;;;;;;;17.92;61.84;101451.16;7401043;19;1580;-78
2024/02/22 01:00:45;;;;;;;;;;;;;;;17.80;61.84;101447.50;7397780;19;1919;-80
2024/02/22 01:03:13;;;;;;;;;;;;;;;17.75;61.97;101438.13;7399949;19;1207;-77
2024/02/22 01:05:42;;;;;;;;;;;;;;;17.72;62.15;101444.53;7389796;19;1831;-77
2024/02/22 01:08:10;;;;;;;;;;;;;;;17.64;62.45;101441.56;7398645;19;1465;-77
2024/02/22 01:10:38;;;;;;;;;;;;;;;17.80;61.89;101431.47;7398698;19;1501;-78
2024/02/22 01:13:09;;;;;;;;;;;;;;;18.21;61.25;101432.13;7399269;19;1552;-78
2024/02/22 01:15:38;;;;;;;;;;;;;;;18.51;60.37;101436.97;7397624;19;1846;-77
2024/02/22 01:18:06;;;;;;;;;;;;;;;18.20;60.91;101433.06;7399029;19;1406;-79
2024/02/22 01:20:35;;;;;;;;;;;;;;;18.04;61.34;101438.69;7400221;19;953;-77
2024/02/22 01:23:06;;;;;;;;;;;;;;;17.89;61.50;101419.28;7399862;19;1831;-78
2024/02/22 01:25:34;;;;;;;;;;;;;;;17.88;61.47;101436.28;7399550;19;1836;-78
2024/02/22 01:28:03;;;;;;;;;;;;;;;17.81;61.60;101429.66;7395331;19;1568;-78
2024/02/22 01:30:34;;;;;;;;;;;;;;;17.78;61.83;101444.09;7398774;19;1805;-79
2024/02/22 01:33:02;;;;;;;;;;;;;;;17.74;61.83;101445.28;7397171;19;1803;-78
2024/02/22 01:35:31;;;;;;;;;;;;;;;17.74;61.86;101429.22;7396164;19;1858;-77
2024/02/22 01:37:59;;;;;;;;;;;;;;;17.62;62.13;101422.09;7396528;19;1816;-76
2024/02/22 01:40:27;;;;;;;;;;;;;;;17.85;61.71;101415.97;7396803;19;1591;-76
2024/02/22 01:42:56;;;;;;;;;;;;;;;18.26;60.74;101404.03;7395891;19;1467;-80
2024/02/22 01:45:25;;;;;;;;;;;;;;;18.39;60.17;101420.00;7395134;19;1215;-76
2024/02/22 01:47:56;;;;;;;;;;;;;;;18.08;61.14;101424.13;7397445;19;1275;-77
2024/02/22 01:50:25;;;;;;;;;;;;;;;17.98;61.41;101429.28;7396184;19;1544;-77
2024/02/22 01:52:53;;;;;;;;;;;;;;;17.87;61.38;101432.75;7396193;19;1865;-77
2024/02/22 01:55:22;;;;;;;;;;;;;;;17.90;61.56;101418.31;7393952;19;1832;-77
2024/02/22 01:57:52;;;;;;;;;;;;;;;17.84;61.46;101416.91;7396876;19;1745;-77
2024/02/22 02:00:23;;;;;;;;;;;;;;;17.77;61.82;101399.59;7398365;19;1495;-78
2024/02/22 02:02:51;;;;;;;;;;;;;;;17.71;61.77;101410.75;7397069;19;1725;-77
2024/02/22 02:05:22;;;;;;;;;;;;;;;17.60;62.29;101414.19;7390747;19;1498;-77
2024/02/22 02:07:51;;;;;;;;;;;;;;;17.70;61.98;101414.38;7396389;19;1415;-78
2024/02/22 02:10:19;;;;;;;;;;;;;;;18.01;61.33;101402.31;7393966;19;1817;-77
2024/02/22 02:12:48;;;;;;;;;;;;;;;18.80;59.51;101404.47;7396116;19;1690;-77
2024/02/22 02:15:16;;;;;;;;;;;;;;;19.45;57.74;101403.78;7396999;19;1854;-77
2024/02/22 02:17:45;;;;;;;;;;;;;;;19.59;57.22;101405.34;7398026;19;1852;-77
2024/02/22 02:20:14;;;;;;;;;;;;;;;19.76;56.83;101395.97;7396700;19;1916;-76
2024/02/22 02:23:07;;;;;;;;;;;;;;;19.77;56.79;101403.03;7394563;19;1605;-77
2024/02/22 02:25:38;;;;;;;;;;;;;;;19.88;56.64;101395.97;7399823;19;1194;-79
2024/02/22 02:28:06;;;;;;;;;;;;;;;19.91;56.46;101390.31;7396085;19;1258;-77
2024/02/22 02:30:35;;;;;;;;;;;;;;;19.25;56.18;101268.59;7392796;19;1481;-77
2024/02/22 02:33:05;;;;;;;;;;;;;;;19.99;56.23;101399.44;7393781;19;1270;-77
2024/02/22 02:35:37;;;;;;;;;;;;;;;20.05;56.13;101390.91;7394059;19;1860;-77
2024/02/22 02:38:05;;;;;;;;;;;;;;;20.07;55.86;101390.75;7397696;19;1179;-77
2024/02/22 02:40:34;;;;;;;;;;;;;;;20.05;56.29;101393.59;7399006;19;1336;-76
2024/02/22 02:43:05;;;;;;;;;;;;;;;20.13;55.85;101400.13;7397487;19;1865;-77
2024/02/22 02:45:33;;;;;;;;;;;;;;;19.98;55.86;101394.22;7393064;19;1584;-76
2024/02/22 02:48:01;;;;;;;;;;;;;;;19.98;56.17;101394.22;7395933;19;1418;-76
2024/02/22 02:50:30;;;;;;;;;;;;;;;19.97;56.06;101404.06;7395727;19;1601;-77
2024/02/22 02:52:58;;;;;;;;;;;;;;;19.98;56.17;101402.28;7394174;19;1477;-76
2024/02/22 02:55:28;;;;;;;;;;;;;;;19.97;56.04;101405.91;7393984;19;1843;-77
2024/02/22 02:57:58;;;;;;;;;;;;;;;19.97;55.94;101416.66;7396248;19;1733;-77
2024/02/22 03:00:29;;;;;;;;;;;;;;;19.94;56.00;101408.88;7396013;19;1734;-78
2024/02/22 03:02:59;;;;;;;;;;;;;;;20.02;55.95;101411.78;7393609;19;1528;-77
2024/02/22 03:05:28;;;;;;;;;;;;;;;20.08;55.74;101403.22;7395760;19;1750;-77
2024/02/22 03:07:57;;;;;;;;;;;;;;;20.14;55.51;101405.38;7390199;19;1812;-77
2024/02/22 03:10:26;;;;;;;;;;;;;;;20.11;55.69;101413.69;7394969;19;1421;-77
2024/02/22 03:12:54;;;;;;;;;;;;;;;20.11;55.80;101412.84;7397214;19;1231;-76
2024/02/22 03:15:22;;;;;;;;;;;;;;;20.11;55.68;101404.78;7394827;19;1862;-76
2024/02/22 03:17:53;;;;;;;;;;;;;;;20.15;55.53;101396.34;7399192;19;1833;-77
2024/02/22 03:20:21;;;;;;;;;;;;;;;20.11;55.54;101404.78;7399916;19;1102;-77
2024/02/22 03:22:50;;;;;;;;;;;;;;;20.13;55.73;101405.50;7400021;19;1529;-76
2024/02/22 03:25:18;;;;;;;;;;;;;;;20.15;55.47;101407.06;7405756;19;1524;-77
2024/02/22 03:27:49;;;;;;;;;;;;;;;20.13;55.65;101400.13;7407132;19;1705;-77
2024/02/22 03:30:18;;;;;;;;;;;;;;;20.22;55.51;101394.84;7406863;19;1726;-77
2024/02/22 03:32:46;;;;;;;;;;;;;;;20.15;55.43;101393.66;7401019;19;1911;-77
2024/02/22 03:35:17;;;;;;;;;;;;;;;20.20;55.44;101391.44;7403320;19;1802;-76
2024/02/22 03:37:46;;;;;;;;;;;;;;;20.21;55.43;101403.03;7402416;19;1773;-76
2024/02/22 03:40:14;;;;;;;;;;;;;;;20.25;55.41;101393.72;7407065;19;1530;-76
2024/02/22 03:42:43;;;;;;;;;;;;;;;20.25;55.55;101405.34;7405911;19;1749;-77
2024/02/22 03:45:12;;;;;;;;;;;;;;;20.25;55.40;101407.16;7407715;19;1140;-77
2024/02/22 03:47:41;;;;;;;;;;;;;;;20.23;55.37;101398.38;7405836;19;1575;-77
2024/02/22 03:50:09;;;;;;;;;;;;;;;20.26;55.35;101407.03;7404999;19;1765;-76
2024/02/22 03:52:41;;;;;;;;;;;;;;;20.26;55.41;101401.66;7406972;19;1765;-77
2024/02/22 03:55:10;;;;;;;;;;;;;;;20.24;55.43;101398.25;7404381;19;1850;-79
2024/02/22 03:57:39;;;;;;;;;;;;;;;20.25;55.42;101404.47;7407816;19;1777;-76
2024/02/22 04:00:08;;;;;;;;;;;;;;;20.04;55.83;101399.06;7404537;19;1599;-77
2024/02/22 04:02:37;;;;;;;;;;;;;;;19.47;57.28;101425.97;7409721;19;1687;-78
2024/02/22 04:05:06;;;;;;;;;;;;;;;19.08;57.93;101419.25;7404094;19;1927;-77
2024/02/22 04:07:34;;;;;;;;;;;;;;;18.86;58.56;101409.34;7394828;19;1599;-77
2024/02/22 04:10:05;;;;;;;;;;;;;;;18.65;58.90;101418.03;7403532;19;1099;-77
2024/02/22 04:12:34;;;;;;;;;;;;;;;18.59;59.14;101394.41;7403258;19;1077;-77
2024/02/22 04:15:03;;;;;;;;;;;;;;;18.82;58.59;101407.88;7402715;19;1891;-76
2024/02/22 04:17:31;;;;;;;;;;;;;;;19.03;58.40;101390.13;7404625;19;1963;-77
2024/02/22 04:20:00;;;;;;;;;;;;;;;19.21;57.95;101397.69;7402986;19;1788;-77
2024/02/22 04:22:29;;;;;;;;;;;;;;;19.30;57.66;101396.97;7399309;19;1655;-77
2024/02/22 04:24:58;;;;;;;;;;;;;;;19.33;57.60;101390.50;7400725;19;1398;-77
2024/02/22 04:27:31;;;;;;;;;;;;;;;19.42;57.40;101405.88;7400035;19;2413;-76
2024/02/22 04:29:59;;;;;;;;;;;;;;;19.36;57.47;101393.81;7401945;19;1728;-77
2024/02/22 04:32:27;;;;;;;;;;;;;;;19.32;57.45;101397.69;7398989;19;1389;-77
2024/02/22 04:34:56;;;;;;;;;;;;;;;19.34;57.25;101395.75;7395001;19;1863;-77
2024/02/22 04:37:24;;;;;;;;;;;;;;;19.30;57.25;101383.56;7399339;19;1537;-77
2024/02/22 04:39:52;;;;;;;;;;;;;;;19.27;57.46;101397.19;7400283;19;1552;-78
2024/02/22 04:42:20;;;;;;;;;;;;;;;19.27;57.50;101390.00;7400021;19;1319;-77
2024/02/22 04:44:51;;;;;;;;;;;;;;;19.32;57.38;101389.66;7397768;19;1522;-77
2024/02/22 04:47:20;;;;;;;;;;;;;;;19.28;57.50;101377.47;7397332;19;1850;-77
2024/02/22 04:49:50;;;;;;;;;;;;;;;19.23;57.42;101369.78;7399251;19;1928;-77
2024/02/22 04:52:18;;;;;;;;;;;;;;;19.22;57.59;101386.00;7399258;19;1691;-77
2024/02/22 04:54:47;;;;;;;;;;;;;;;19.19;57.44;101384.41;7403956;19;1843;-78
2024/02/22 04:57:15;;;;;;;;;;;;;;;19.17;57.64;101389.03;7399686;19;1588;-77
2024/02/22 04:59:43;;;;;;;;;;;;;;;19.16;57.75;101399.88;7401114;19;1369;-76
2024/02/22 05:02:14;;;;;;;;;;;;;;;19.13;57.61;101386.72;7397880;19;1595;-77
2024/02/22 05:04:43;;;;;;;;;;;;;;;19.11;57.85;101383.31;7398644;19;1420;-77
2024/02/22 05:07:11;;;;;;;;;;;;;;;19.18;57.84;101400.59;7386044;19;1962;-76
2024/02/22 05:09:40;;;;;;;;;;;;;;;19.25;57.41;101400.00;7398959;19;1671;-77
2024/02/22 05:12:09;;;;;;;;;;;;;;;19.27;57.58;101399.88;7396020;19;1543;-76
2024/02/22 05:14:37;;;;;;;;;;;;;;;19.34;57.32;101402.91;7393625;19;1836;-75
2024/02/22 05:17:07;;;;;;;;;;;;;;;19.37;57.53;101402.69;7395646;19;1762;-74
2024/02/22 05:19:38;;;;;;;;;;;;;;;19.28;57.92;101417.69;7392814;19;1722;-75
2024/02/22 05:22:06;;;;;;;;;;;;;;;19.31;58.04;101412.06;7395679;19;1846;-78
2024/02/22 05:24:35;;;;;;;;;;;;;;;19.28;57.98;101418.53;7392454;19;1611;-75
2024/02/22 05:27:03;;;;;;;;;;;;;;;19.28;58.32;101423.06;7396765;19;1715;-75
2024/02/22 05:29:32;;;;;;;;;;;;;;;19.31;58.32;101409.38;7393693;19;1404;-76
2024/02/22 05:32:00;;;;;;;;;;;;;;;19.26;56.87;101411.59;7391088;19;1453;-78
2024/02/22 05:34:29;;;;;;;;;;;;;;;19.38;57.24;101423.19;7391428;19;1493;-75
2024/02/22 05:37:00;;;;;;;;;;;;;;;19.47;56.81;101417.91;7389454;19;1864;-75
2024/02/22 05:39:28;;;;;;;;;;;;;;;19.57;56.60;101420.72;7392059;19;1545;-75
2024/02/22 05:41:56;;;;;;;;;;;;;;;19.60;56.47;101435.72;7392452;19;1397;-74
2024/02/22 05:44:25;;;;;;;;;;;;;;;19.64;56.36;101450.59;7393736;19;1033;-74
2024/02/22 05:46:53;;;;;;;;;;;;;;;19.66;56.38;101440.59;7386076;19;1557;-75
2024/02/22 05:49:22;;;;;;;;;;;;;;;19.69;56.22;101432.28;7396360;19;1417;-75
2024/02/22 05:51:51;;;;;;;;;;;;;;;19.75;56.14;101431.81;7392287;19;1433;-75
2024/02/22 05:54:22;;;;;;;;;;;;;;;19.74;56.21;101432.81;7394074;19;1203;-75
2024/02/22 05:56:50;;;;;;;;;;;;;;;19.78;56.09;101415.47;7391774;19;1859;-76
2024/02/22 05:59:19;;;;;;;;;;;;;;;19.75;56.03;101430.97;7389430;19;1476;-75
2024/02/22 06:01:49;;;;;;;;;;;;;;;19.81;56.16;101427.78;7394257;19;1516;-75
2024/02/22 06:04:18;;;;;;;;;;;;;;;19.88;55.92;101444.28;7393004;19;1920;-75
2024/02/22 06:06:46;;;;;;;;;;;;;;;19.88;56.04;101441.59;7380074;19;1517;-76
2024/02/22 06:09:14;;;;;;;;;;;;;;;19.94;55.73;101446.47;7393243;19;1753;-76
2024/02/22 06:11:46;;;;;;;;;;;;;;;19.92;55.63;101448.41;7395845;19;1247;-75
2024/02/22 06:14:14;;;;;;;;;;;;;;;19.96;55.68;101444.50;7394002;19;1595;-75
2024/02/22 06:16:42;;;;;;;;;;;;;;;20.00;55.64;101433.38;7390982;19;1865;-75
2024/02/22 06:19:11;;;;;;;;;;;;;;;20.03;55.66;101451.06;7394879;19;1467;-75
2024/02/22 06:21:39;;;;;;;;;;;;;;;20.07;55.51;101439.06;7394779;19;1148;-75
2024/02/22 06:24:08;;;;;;;;;;;;;;;20.06;55.46;101432.88;7396341;19;1646;-75
2024/02/22 06:26:37;;;;;;;;;;;;;;;20.14;55.33;101448.34;7393344;19;1326;-75
2024/02/22 06:29:08;;;;;;;;;;;;;;;20.11;55.50;101442.38;7394938;19;1452;-75
2024/02/22 06:31:37;;;;;;;;;;;;;;;20.18;55.31;101433.69;7391642;19;1517;-75
2024/02/22 06:34:05;;;;;;;;;;;;;;;20.23;55.02;101439.53;7392640;19;1032;-76
2024/02/22 06:36:33;;;;;;;;;;;;;;;20.22;55.17;101443.19;7391754;19;1842;-75
2024/02/22 06:39:01;;;;;;;;;;;;;;;20.25;55.23;101434.91;7392523;19;1813;-76
2024/02/22 06:41:32;;;;;;;;;;;;;;;20.30;55.01;101444.41;7391882;19;1821;-75
2024/02/22 06:44:00;;;;;;;;;;;;;;;20.36;54.78;101441.19;7391470;19;1450;-76
2024/02/22 06:46:31;;;;;;;;;;;;;;;20.32;54.94;101432.53;7390049;19;1370;-75
2024/02/22 06:48:59;;;;;;;;;;;;;;;20.11;55.43;101424.41;7392692;19;1766;-76
2024/02/22 06:51:28;;;;;;;;;;;;;;;19.77;56.33;101443.28;7393483;19;1234;-75
2024/02/22 06:53:57;;;;;;;;;;;;;;;19.48;56.95;101432.19;7394361;19;931;-76
2024/02/22 06:56:26;;;;;;;;;;;;;;;19.28;57.49;101453.41;7391248;19;1855;-75
2024/02/22 06:58:55;;;;;;;;;;;;;;;19.12;57.82;101460.06;7391696;19;1842;-76
2024/02/22 07:01:23;;;;;;;;;;;;;;;19.34;57.52;101427.94;7391077;19;2384;-76
2024/02/22 07:03:54;;;;;;;;;;;;;;;19.80;56.33;101432.31;7393008;19;1279;-75
2024/02/22 07:06:23;;;;;;;;;;;;;;;19.99;55.74;101431.66;7391917;19;1520;-75
2024/02/22 07:08:48;;;;;;;;;;;;;;;19.68;56.53;101409.97;7376953;19;1400;-75
2024/02/22 07:11:17;;;;;;;;;;;;;;;19.42;57.26;101463.03;7392175;19;1833;-75
2024/02/22 07:13:45;;;;;;;;;;;;;;;19.21;57.69;101414.63;7391890;19;1137;-75
2024/02/22 07:16:14;;;;;;;;;;;;;;;19.07;58.09;101415.72;7391721;19;1857;-75
2024/02/22 07:18:42;;;;;;;;;;;;;;;19.44;57.09;101412.81;7392202;19;1612;-76
2024/02/22 07:21:13;;;;;;;;;;;;;;;19.86;56.23;101404.97;7392477;19;1491;-76
2024/02/22 07:23:42;;;;;;;;;;;;;;;19.68;56.55;101409.13;7394424;19;1577;-75
2024/02/22 07:26:12;;;;;;;;;;;;;;;19.38;57.53;101404.41;7391397;19;1460;-75
2024/02/22 07:28:41;;;;;;;;;;;;;;;19.20;57.90;101406.69;7392498;19;1306;-75
2024/02/22 07:31:10;;;;;;;;;;;;;;;19.03;58.27;101390.13;7392037;19;1856;-75
2024/02/22 07:33:38;;;;;;;;;;;;;;;19.32;57.50;101395.03;7391318;19;1833;-75
2024/02/22 07:36:07;;;;;;;;;;;;;;;19.76;56.54;101379.88;7391421;19;1861;-76
2024/02/22 07:38:39;;;;;;;;;;;;;;;20.01;56.02;101392.09;7391206;19;1346;-75
2024/02/22 07:41:12;;;;;;;;;;;;;;;19.85;56.22;101389.00;7387973;19;1404;-75
2024/02/22 07:43:41;;;;;;;;;;;;;;;19.53;57.17;101391.59;7387853;19;1626;-76
2024/02/22 07:46:11;;;;;;;;;;;;;;;19.28;57.77;101378.31;7385190;19;1725;-75
2024/02/22 07:48:39;;;;;;;;;;;;;;;19.10;58.13;101376.22;7386826;19;1506;-76
2024/02/22 07:51:08;;;;;;;;;;;;;;;19.14;57.96;101386.63;7389263;19;1424;-76
2024/02/22 07:53:39;;;;;;;;;;;;;;;19.70;56.69;101376.81;7388029;19;1816;-76
2024/02/22 07:56:09;;;;;;;;;;;;;;;20.02;55.80;101376.88;7388629;19;1857;-76
2024/02/22 07:58:47;;;;;;;;;;;;;;;19.99;55.95;101382.47;7390236;19;1831;-76
2024/02/22 08:01:15;;;;;;;;;;;;;;;19.69;56.95;101381.31;7389008;19;1445;-76
2024/02/22 08:03:44;;;;;;;;;;;;;;;19.45;57.52;101376.09;7389484;19;1499;-77
2024/02/22 08:06:13;;;;;;;;;;;;;;;19.28;57.88;101372.09;7384174;19;1473;-76
2024/02/22 08:08:45;;;;;;;;;;;;;;;19.19;58.70;101381.72;7373907;19;1492;-76
2024/02/22 08:11:13;;;;;;;;;;;;;;;19.46;57.55;101377.81;7390715;19;1454;-77
2024/02/22 08:13:42;;;;;;;;;;;;;;;19.99;56.52;101363.69;7394765;19;1668;-77
2024/02/22 08:16:11;;;;;;;;;;;;;;;19.99;56.24;101369.06;7395426;19;1851;-76
2024/02/22 08:18:40;;;;;;;;;;;;;;;19.71;58.11;101357.91;7396403;19;1777;-76
2024/02/22 08:21:09;;;;;;;;;;;;;;;20.01;56.55;101359.88;7392521;19;1489;-76
2024/02/22 08:23:38;;;;;;;;;;;;;;;19.70;56.58;101356.19;7394950;19;1482;-76
2024/02/22 08:26:09;;;;;;;;;;;;;;;19.37;56.82;101360.63;7395804;19;1496;-76
2024/02/22 08:28:37;;;;;;;;;;;;;;;18.00;48.22;101363.13;7396027;19;1577;-77
2024/02/22 08:31:06;;;;;;;;;;;;;;;16.42;46.92;101372.50;7396136;19;1462;-76
2024/02/22 08:33:34;;;;;;;;;;;;;;;16.18;48.24;101364.31;7395801;19;1988;-76
2024/02/22 08:36:02;;;;;;;;;;;;;;;15.58;48.88;101359.34;7394600;19;1851;-75
2024/02/22 08:38:31;;;;;;;;;;;;;;;15.02;47.93;101372.63;7394183;19;1555;-76
2024/02/22 08:40:59;;;;;;;;;;;;;;;14.99;46.77;101372.81;7394343;19;1564;-76
2024/02/22 08:43:30;;;;;;;;;;;;;;;15.71;47.16;101368.25;7389840;19;1505;-76
2024/02/22 08:46:01;;;;;;;;;;;;;;;16.82;51.03;101368.94;7394258;19;1482;-76
2024/02/22 08:48:30;;;;;;;;;;;;;;;17.41;51.14;101355.84;7393940;19;1448;-75
2024/02/22 08:50:58;;;;;;;;;;;;;;;17.77;51.02;101348.78;7394347;19;1655;-75
2024/02/22 08:53:27;;;;;;;;;;;;;;;18.59;51.27;101356.91;7395111;19;1670;-77
2024/02/22 08:55:55;;;;;;;;;;;;;;;19.23;51.02;101352.84;7392372;19;1862;-77
2024/02/22 08:58:25;;;;;;;;;;;;;;;19.22;51.95;101352.00;7394518;19;1548;-77
2024/02/22 09:00:56;;;;;;;;;;;;;;;19.01;51.89;101354.53;7393567;19;1326;-76
2024/02/22 09:03:26;;;;;;;;;;;;;;;18.84;52.76;101342.50;7394138;19;1597;-76
2024/02/22 09:05:55;;;;;;;;;;;;;;;18.84;53.59;101360.38;7396125;19;1696;-76
2024/02/22 09:08:25;;;;;;;;;;;;;;;19.29;53.16;101352.34;7381061;19;1422;-76
2024/02/22 09:10:53;;;;;;;;;;;;;;;19.64;52.67;101348.66;7393874;19;1556;-76
2024/02/22 09:13:22;;;;;;;;;;;;;;;19.51;53.15;101339.88;7392861;19;1563;-76
2024/02/22 09:15:49;;;;;;;;;;;;;;;19.16;54.07;101352.50;7390473;19;1582;-75
2024/02/22 09:18:21;;;;;;;;;;;;;;;18.96;55.22;101350.50;7389665;19;1864;-76
2024/02/22 09:20:49;;;;;;;;;;;;;;;18.83;55.62;101356.00;7393261;19;1306;-76
2024/02/22 09:23:19;;;;;;;;;;;;;;;19.18;55.25;101349.66;7392431;19;1426;-75
2024/02/22 09:25:48;;;;;;;;;;;;;;;19.61;54.28;101341.69;7389593;19;1806;-75
2024/02/22 09:28:16;;;;;;;;;;;;;;;19.57;54.63;101339.38;7392267;19;1849;-75
2024/02/22 09:30:44;;;;;;;;;;;;;;;19.26;55.27;101332.00;7390612;19;1931;-76
2024/02/22 09:33:13;;;;;;;;;;;;;;;19.01;56.07;101340.28;7393470;19;1482;-76
2024/02/22 09:35:46;;;;;;;;;;;;;;;18.92;56.94;101332.97;7392754;19;1463;-75
2024/02/22 09:38:14;;;;;;;;;;;;;;;19.21;56.49;101338.72;7392129;19;1877;-75
2024/02/22 09:40:42;;;;;;;;;;;;;;;19.64;55.45;101328.03;7392465;19;1489;-75
2024/02/22 09:43:13;;;;;;;;;;;;;;;19.46;55.78;101316.13;7390934;19;1762;-77
2024/02/22 09:45:44;;;;;;;;;;;;;;;19.25;56.41;101321.41;7389812;19;1302;-75
2024/02/22 09:48:13;;;;;;;;;;;;;;;19.03;57.13;101307.03;7392940;19;990;-76
2024/02/22 09:50:43;;;;;;;;;;;;;;;18.95;57.33;101322.88;7393813;19;1695;-75
2024/02/22 09:53:13;;;;;;;;;;;;;;;19.46;56.37;101303.56;7391584;19;1504;-75
2024/02/22 09:55:41;;;;;;;;;;;;;;;19.85;55.42;101317.38;7392384;19;1665;-75
2024/02/22 09:58:10;;;;;;;;;;;;;;;19.52;56.20;101304.91;7392078;19;1834;-74
2024/02/22 10:00:38;;;;;;;;;;;;;;;19.20;56.91;101289.59;7390061;19;1409;-75
2024/02/22 10:03:06;;;;;;;;;;;;;;;19.10;57.42;101319.94;7392033;19;1749;-75
2024/02/22 10:05:38;;;;;;;;;;;;;;;19.00;57.70;101283.16;7394958;19;1596;-75
2024/02/22 10:08:17;;;;;;;;;;;;;;;19.46;56.73;101289.31;7381948;19;1018;-75
2024/02/22 10:10:47;;;;;;;;;;;;;;;19.74;55.86;101277.19;7394058;19;1631;-75
2024/02/22 10:13:21;;;;;;;;;;;;;;;19.40;56.63;101279.09;7392828;19;1509;-75
2024/02/22 10:15:49;;;;;;;;;;;;;;;19.19;57.34;101271.78;7390823;19;1477;-76
2024/02/22 10:18:25;;;;;;;;;;;;;;;19.07;57.81;101273.63;7391503;19;1841;-75
2024/02/22 10:20:54;;;;;;;;;;;;;;;19.11;57.70;101284.13;7391610;19;1478;-78
2024/02/22 10:23:25;;;;;;;;;;;;;;;19.50;56.74;101274.66;7392175;19;1651;-75
2024/02/22 10:26:04;;;;;;;;;;;;;;;19.57;56.40;101264.28;7391447;19;1128;-75
2024/02/22 10:28:32;;;;;;;;;;;;;;;19.24;57.17;101263.41;7389908;19;2375;-76
2024/02/22 10:31:03;;;;;;;;;;;;;;;19.11;57.17;101241.22;7390794;19;1872;-75
2024/02/22 10:33:32;;;;;;;;;;;;;;;19.10;56.77;101244.88;7390901;19;1273;-75
2024/02/22 10:36:01;;;;;;;;;;;;;;;19.54;54.13;101245.75;7391981;19;1726;-76
2024/02/22 10:38:33;;;;;;;;;;;;;;;19.83;54.38;101241.50;7390558;19;1932;-77
2024/02/22 10:41:02;;;;;;;;;;;;;;;20.09;54.11;101243.81;7392931;19;1408;-76
2024/02/22 10:43:31;;;;;;;;;;;;;;;19.82;54.67;101237.13;7390133;19;1798;-75
2024/02/22 10:46:02;;;;;;;;;;;;;;;19.48;55.37;101223.81;7385320;19;1876;-75
2024/02/22 10:48:34;;;;;;;;;;;;;;;19.50;55.67;101228.19;7390644;19;1219;-75
2024/02/22 10:51:05;;;;;;;;;;;;;;;19.85;54.87;101212.69;7385536;19;1582;-76
2024/02/22 10:53:38;;;;;;;;;;;;;;;20.16;54.53;101218.13;7386301;19;1411;-75
2024/02/22 10:56:07;;;;;;;;;;;;;;;20.07;54.76;101213.56;7389424;19;1682;-75
2024/02/22 10:58:38;;;;;;;;;;;;;;;19.70;55.66;101207.78;7389320;19;1851;-75
2024/02/22 11:01:07;;;;;;;;;;;;;;;19.42;56.29;101200.19;7390784;19;1796;-75
2024/02/22 11:03:36;;;;;;;;;;;;;;;19.74;55.77;101191.31;7389398;19;1347;-75
2024/02/22 11:06:05;;;;;;;;;;;;;;;19.98;55.35;101193.72;7392155;19;1702;-75
2024/02/22 11:08:33;;;;;;;;;;;;;;;20.35;54.44;101182.50;7378924;19;1257;-75
2024/02/22 11:11:10;;;;;;;;;;;;;;;20.44;54.16;101178.13;7387253;19;1401;-75
2024/02/22 11:13:38;;;;;;;;;;;;;;;20.50;54.12;101161.47;7390618;19;1057;-75
2024/02/22 11:16:14;;;;;;;;;;;;;;;20.63;53.64;101170.19;7387492;19;1826;-75
2024/02/22 11:18:42;;;;;;;;;;;;;;;20.63;53.69;101153.19;7387144;19;1842;-75
2024/02/22 11:21:13;;;;;;;;;;;;;;;20.61;53.90;101157.84;7388304;19;1711;-75
2024/02/22 11:23:42;;;;;;;;;;;;;;;20.62;53.94;101151.50;7389139;19;1586;-75
2024/02/22 11:26:13;;;;;;;;;;;;;;;20.62;53.79;101152.34;7389035;19;1484;-75
2024/02/22 11:28:42;;;;;;;;;;;;;;;20.68;53.82;101147.44;7387426;19;1305;-76
2024/02/22 11:31:14;;;;;;;;;;;;;;;20.65;53.90;101144.03;7388211;19;1738;-76
2024/02/22 11:33:43;;;;;;;;;;;;;;;20.65;53.93;101135.97;7386575;19;1213;-76
2024/02/22 11:36:16;;;;;;;;;;;;;;;20.65;53.85;101133.28;7388511;19;922;-75
2024/02/22 11:38:44;;;;;;;;;;;;;;;20.68;53.95;101134.84;7386096;19;1835;-76
2024/02/22 11:41:18;;;;;;;;;;;;;;;20.69;53.81;101120.44;7384678;19;1816;-75
2024/02/22 11:43:46;;;;;;;;;;;;;;;20.62;54.02;101114.72;7383727;19;1556;-75
2024/02/22 11:46:14;;;;;;;;;;;;;;;20.66;54.01;101118.84;7390387;19;1891;-75
2024/02/22 11:48:43;;;;;;;;;;;;;;;20.31;54.79;101119.25;7392278;19;1583;-75
2024/02/22 11:51:11;;;;;;;;;;;;;;;19.87;55.83;101113.28;7391999;19;1855;-75
2024/02/22 11:53:39;;;;;;;;;;;;;;;19.67;56.61;101129.22;7391551;19;1915;-77
2024/02/22 11:56:08;;;;;;;;;;;;;;;19.64;56.72;101115.22;7394219;19;1618;-75
2024/02/22 11:58:40;;;;;;;;;;;;;;;19.93;56.15;101107.38;7392062;19;1843;-75
2024/02/22 12:01:09;;;;;;;;;;;;;;;20.16;55.60;101094.63;7395056;19;1539;-75
2024/02/22 12:03:37;;;;;;;;;;;;;;;19.89;56.11;101105.94;7391714;19;1892;-76
2024/02/22 12:06:07;;;;;;;;;;;;;;;19.61;56.61;101096.69;7391066;19;1479;-75
2024/02/22 12:08:36;;;;;;;;;;;;;;;19.52;57.13;101090.31;7376846;19;1406;-75
2024/02/22 12:11:06;;;;;;;;;;;;;;;19.80;56.41;101088.81;7388952;19;1535;-76
2024/02/22 12:13:34;;;;;;;;;;;;;;;20.14;55.76;101093.91;7394574;19;1813;-76
2024/02/22 12:16:12;;;;;;;;;;;;;;;19.91;56.04;101085.19;7392051;19;1611;-76
2024/02/22 12:18:42;;;;;;;;;;;;;;;19.58;57.04;101105.03;7390875;19;1854;-76
2024/02/22 12:21:12;;;;;;;;;;;;;;;19.43;57.31;101078.50;7392242;19;1211;-77
2024/02/22 12:23:41;;;;;;;;;;;;;;;19.74;56.65;101092.03;7392822;19;1802;-75
2024/02/22 12:26:09;;;;;;;;;;;;;;;19.92;56.40;101067.25;7392725;19;1570;-76
2024/02/22 12:28:38;;;;;;;;;;;;;;;19.95;56.06;101075.03;7390878;19;1364;-75
2024/02/22 12:31:07;;;;;;;;;;;;;;;19.66;56.90;101071.19;7392096;19;1899;-75
2024/02/22 12:33:38;;;;;;;;;;;;;;;20.02;56.01;101073.50;7392664;19;1467;-76
2024/02/22 12:36:07;;;;;;;;;;;;;;;20.40;55.18;101069.28;7389668;19;1908;-75
2024/02/22 12:38:35;;;;;;;;;;;;;;;20.70;54.39;101070.22;7391007;19;1863;-76
2024/02/22 12:41:04;;;;;;;;;;;;;;;20.65;54.49;101062.53;7391642;19;1791;-76
2024/02/22 12:43:32;;;;;;;;;;;;;;;20.64;54.65;101067.06;7391739;19;1762;-75
2024/02/22 12:46:00;;;;;;;;;;;;;;;20.69;54.45;101053.25;7388961;19;1500;-75
2024/02/22 12:48:29;;;;;;;;;;;;;;;20.68;54.36;101054.22;7392490;19;1014;-75
2024/02/22 12:51:00;;;;;;;;;;;;;;;20.56;54.69;101056.16;7390250;19;1497;-75
2024/02/22 12:53:28;;;;;;;;;;;;;;;20.84;54.39;101056.34;7391310;19;1751;-75
2024/02/22 12:55:57;;;;;;;;;;;;;;;20.97;53.98;101039.94;7389809;19;1760;-76
2024/02/22 12:58:25;;;;;;;;;;;;;;;21.02;53.79;101027.75;7389508;19;1867;-76